createdAt,value
2023-05-04T00:00:14.584Z,2490.00
2023-05-04T00:01:14.614Z,2496.00
2023-05-04T00:02:14.661Z,2484.00
2023-05-04T00:03:14.767Z,2477.00
2023-05-04T00:04:14.816Z,2462.00
2023-05-04T00:05:14.726Z,2463.00
2023-05-04T00:06:14.713Z,2471.00
2023-05-04T00:07:14.724Z,2469.00
2023-05-04T00:08:14.716Z,2469.00
2023-05-04T00:09:14.680Z,2468.00
2023-05-04T00:10:14.758Z,2457.00
2023-05-04T00:11:14.831Z,2461.00
2023-05-04T00:12:14.943Z,2452.00
2023-05-04T00:13:15.070Z,2454.00
2023-05-04T00:14:15.094Z,2437.00
2023-05-04T00:15:15.181Z,2440.00
2023-05-04T00:16:15.224Z,2444.00
2023-05-04T00:17:15.209Z,2447.00
2023-05-04T00:18:15.187Z,2449.00
2023-05-04T00:19:15.192Z,2439.00
2023-05-04T00:20:15.209Z,2430.00
2023-05-04T00:21:15.213Z,2431.00
2023-05-04T00:22:15.181Z,2417.00
2023-05-04T00:23:15.210Z,2419.00
2023-05-04T00:24:15.197Z,2423.00
2023-05-04T00:25:15.196Z,2415.00
2023-05-04T00:26:15.253Z,2424.00
2023-05-04T00:27:15.325Z,2416.00
2023-05-04T00:28:15.428Z,2421.00
2023-05-04T00:29:15.499Z,2416.00
2023-05-04T00:30:15.524Z,2398.00
2023-05-04T00:31:15.515Z,2417.00
2023-05-04T00:32:15.485Z,2408.00
2023-05-04T00:33:15.487Z,2403.00
2023-05-04T00:34:15.501Z,2417.00
2023-05-04T00:35:15.551Z,2404.00
2023-05-04T00:36:15.636Z,2398.00
2023-05-04T00:37:15.614Z,2384.00
2023-05-04T00:38:15.601Z,2392.00
2023-05-04T00:39:15.597Z,2376.00
2023-05-04T00:40:15.572Z,2381.00
2023-05-04T00:41:15.648Z,2376.00
2023-05-04T00:42:15.714Z,2359.00
2023-05-04T00:43:15.744Z,2380.00
2023-05-04T00:44:15.749Z,2384.00
2023-05-04T00:45:15.766Z,2373.00
2023-05-04T00:46:15.816Z,2382.00
2023-05-04T00:47:16.003Z,2363.00
2023-05-04T00:48:15.968Z,2352.00
2023-05-04T00:49:16.053Z,2353.00
2023-05-04T00:50:16.087Z,2345.00
2023-05-04T00:51:16.131Z,2350.00
2023-05-04T00:52:16.224Z,2340.00
2023-05-04T00:53:16.246Z,2335.00
2023-05-04T00:54:16.320Z,2339.00
2023-05-04T00:55:16.365Z,2327.00
2023-05-04T00:56:16.428Z,2349.00
2023-05-04T00:57:16.464Z,2312.00
2023-05-04T00:58:16.522Z,2332.00
2023-05-04T00:59:16.589Z,2315.00
2023-05-04T01:00:16.620Z,2305.00
2023-05-04T01:01:16.701Z,2298.00
2023-05-04T01:02:16.712Z,2293.00
2023-05-04T01:03:16.853Z,2300.00
2023-05-04T01:04:16.803Z,2304.00
2023-05-04T01:05:16.882Z,2310.00
2023-05-04T01:06:16.916Z,2283.00
2023-05-04T01:07:16.950Z,2279.00
2023-05-04T01:08:17.007Z,2290.00
2023-05-04T01:09:17.019Z,2296.00
2023-05-04T01:10:17.067Z,2292.00
2023-05-04T01:11:17.100Z,2290.00
2023-05-04T01:12:17.115Z,2286.00
2023-05-04T01:13:17.278Z,2289.00
2023-05-04T01:14:17.173Z,2272.00
2023-05-04T01:15:17.207Z,2249.00
2023-05-04T01:16:17.305Z,2262.00
2023-05-04T01:17:17.293Z,2266.00
2023-05-04T01:18:17.327Z,2272.00
2023-05-04T01:19:17.356Z,2263.00
2023-05-04T01:20:17.405Z,2259.00
2023-05-04T01:21:17.412Z,2270.00
2023-05-04T01:22:17.486Z,2247.00
2023-05-04T01:23:17.534Z,2247.00
2023-05-04T01:24:17.536Z,2260.00
2023-05-04T01:25:17.592Z,2263.00
2023-05-04T01:26:17.587Z,2252.00
2023-05-04T01:27:17.640Z,2265.00
2023-05-04T01:28:17.685Z,2245.00
2023-05-04T01:29:17.731Z,2245.00
2023-05-04T01:30:17.721Z,2252.00
2023-05-04T01:31:17.786Z,2241.00
2023-05-04T01:32:17.892Z,2236.00
2023-05-04T01:33:17.879Z,2243.00
2023-05-04T01:34:17.894Z,2233.00
2023-05-04T01:35:17.885Z,2222.00
2023-05-04T01:36:17.933Z,2237.00
2023-05-04T01:37:17.936Z,2234.00
2023-05-04T01:38:18.016Z,2223.00
2023-05-04T01:39:18.055Z,2234.00
2023-05-04T01:40:18.049Z,2217.00
2023-05-04T01:41:18.127Z,2228.00
2023-05-04T01:42:18.146Z,2218.00
2023-05-04T01:43:18.178Z,2206.00
2023-05-04T01:44:18.201Z,2220.00
2023-05-04T01:45:18.226Z,2226.00
2023-05-04T01:46:18.272Z,2206.00
2023-05-04T01:47:18.301Z,2215.00
2023-05-04T01:48:18.339Z,2214.00
2023-05-04T01:49:18.387Z,2202.00
2023-05-04T01:50:18.422Z,2206.00
2023-05-04T01:51:18.436Z,2192.00
2023-05-04T01:52:18.458Z,2206.00
2023-05-04T01:53:18.493Z,2179.00
2023-05-04T01:54:18.530Z,2185.00
2023-05-04T01:55:18.568Z,2198.00
2023-05-04T01:56:18.592Z,2201.00
2023-05-04T01:57:18.592Z,2190.00
2023-05-04T01:58:18.688Z,2191.00
2023-05-04T01:59:18.753Z,2193.00
2023-05-04T02:00:18.725Z,2187.00
2023-05-04T02:01:18.766Z,2185.00
2023-05-04T02:02:18.737Z,2175.00
2023-05-04T02:03:18.830Z,2179.00
2023-05-04T02:04:18.945Z,2160.00
2023-05-04T02:05:18.837Z,2159.00
2023-05-04T02:06:18.849Z,2181.00
2023-05-04T02:07:18.884Z,2165.00
2023-05-04T02:08:18.949Z,2157.00
2023-05-04T02:09:18.965Z,2156.00
2023-05-04T02:10:18.974Z,2161.00
2023-05-04T02:11:18.986Z,2161.00
2023-05-04T02:12:19.017Z,2143.00
2023-05-04T02:13:19.044Z,2157.00
2023-05-04T02:14:19.075Z,2153.00
2023-05-04T02:15:19.099Z,2158.00
2023-05-04T02:16:19.165Z,2152.00
2023-05-04T02:17:19.172Z,2156.00
2023-05-04T02:18:19.172Z,2139.00
2023-05-04T02:19:19.239Z,2147.00
2023-05-04T02:20:19.235Z,2123.00
2023-05-04T02:21:19.249Z,2145.00
2023-05-04T02:22:19.294Z,2134.00
2023-05-04T02:23:19.323Z,2123.00
2023-05-04T02:24:19.310Z,2130.00
2023-05-04T02:25:19.296Z,2135.00
2023-05-04T02:26:19.272Z,2131.00
2023-05-04T02:27:19.294Z,2126.00
2023-05-04T02:28:19.364Z,2120.00
2023-05-04T02:29:19.414Z,2122.00
2023-05-04T02:30:19.372Z,2117.00
2023-05-04T02:31:19.418Z,2118.00
2023-05-04T02:32:19.422Z,2094.00
2023-05-04T02:33:19.428Z,2107.00
2023-05-04T02:34:19.436Z,2104.00
2023-05-04T02:35:19.452Z,2108.00
2023-05-04T02:36:19.496Z,2102.00
2023-05-04T02:37:19.458Z,2121.00
2023-05-04T02:38:19.505Z,2102.00
2023-05-04T02:39:19.522Z,2098.00
2023-05-04T02:40:19.518Z,2105.00
2023-05-04T02:41:19.516Z,2091.00
2023-05-04T02:42:19.594Z,2092.00
2023-05-04T02:43:19.568Z,2093.00
2023-05-04T02:44:19.655Z,2085.00
2023-05-04T02:45:19.585Z,2097.00
2023-05-04T02:46:19.685Z,2069.00
2023-05-04T02:47:19.632Z,2072.00
2023-05-04T02:48:19.654Z,2085.00
2023-05-04T02:49:19.653Z,2077.00
2023-05-04T02:50:19.655Z,2063.00
2023-05-04T02:51:19.684Z,2075.00
2023-05-04T02:52:19.704Z,2068.00
2023-05-04T02:53:19.718Z,2075.00
2023-05-04T02:54:19.704Z,2078.00
2023-05-04T02:55:19.733Z,2056.00
2023-05-04T02:56:19.743Z,2069.00
2023-05-04T02:57:19.749Z,2064.00
2023-05-04T02:58:19.809Z,2042.00
2023-05-04T02:59:19.770Z,2051.00
2023-05-04T03:00:19.818Z,2041.00
2023-05-04T03:01:19.836Z,2052.00
2023-05-04T03:02:19.820Z,2040.00
2023-05-04T03:03:19.877Z,2048.00
2023-05-04T03:04:19.933Z,2050.00
2023-05-04T03:05:19.928Z,2022.00
2023-05-04T03:06:19.908Z,2040.00
2023-05-04T03:07:19.935Z,2042.00
2023-05-04T03:08:19.929Z,2026.00
2023-05-04T03:09:19.922Z,2036.00
2023-05-04T03:10:19.943Z,2047.00
2023-05-04T03:11:19.937Z,2037.00
2023-05-04T03:12:19.961Z,2038.00
2023-05-04T03:13:19.976Z,2035.00
2023-05-04T03:14:20.019Z,2027.00
2023-05-04T03:15:20.028Z,2002.00
2023-05-04T03:16:20.092Z,2032.00
2023-05-04T03:17:20.040Z,2008.00
2023-05-04T03:18:20.045Z,2012.00
2023-05-04T03:19:20.060Z,2019.00
2023-05-04T03:20:20.038Z,2018.00
2023-05-04T03:21:20.068Z,1989.00
2023-05-04T03:22:20.075Z,2010.00
2023-05-04T03:23:20.095Z,1992.00
2023-05-04T03:24:20.102Z,2008.00
2023-05-04T03:25:20.099Z,2000.00
2023-05-04T03:26:20.085Z,1994.00
2023-05-04T03:27:20.092Z,1984.00
2023-05-04T03:28:20.088Z,1994.00
2023-05-04T03:29:20.126Z,1996.00
2023-05-04T03:30:20.131Z,1986.00
2023-05-04T03:31:20.182Z,1997.00
2023-05-04T03:32:20.139Z,1997.00
2023-05-04T03:33:20.123Z,1992.00
2023-05-04T03:34:20.161Z,1988.00
2023-05-04T03:35:24.762Z,1986.00
2023-05-04T03:36:21.130Z,1987.00
2023-05-04T03:37:20.125Z,1987.00
2023-05-04T03:38:20.116Z,1988.00
2023-05-04T03:39:20.117Z,1984.00
2023-05-04T03:40:20.136Z,1983.00
2023-05-04T03:41:20.111Z,1980.00
2023-05-04T03:42:20.096Z,1977.00
2023-05-04T03:43:20.097Z,1971.00
2023-05-04T03:44:20.137Z,1962.00
2023-05-04T03:45:20.073Z,1968.00
2023-05-04T03:46:20.103Z,1958.00
2023-05-04T03:47:20.079Z,1976.00
2023-05-04T03:48:20.067Z,1953.00
2023-05-04T03:49:20.048Z,1949.00
2023-05-04T03:50:20.076Z,1931.00
2023-05-04T03:51:20.097Z,1954.00
2023-05-04T03:52:20.037Z,1957.00
2023-05-04T03:53:20.045Z,1940.00
2023-05-04T03:54:20.023Z,1948.00
2023-05-04T03:55:20.024Z,1927.00
2023-05-04T03:56:19.997Z,1934.00
2023-05-04T03:57:20.010Z,1943.00
2023-05-04T03:58:19.962Z,1931.00
2023-05-04T03:59:19.973Z,1927.00
2023-05-04T04:00:20.004Z,1926.00
2023-05-04T04:01:20.002Z,1944.00
2023-05-04T04:02:19.969Z,1924.00
2023-05-04T04:03:20.086Z,1907.00
2023-05-04T04:04:19.980Z,1929.00
2023-05-04T04:05:19.981Z,1916.00
2023-05-04T04:06:19.936Z,1931.00
2023-05-04T04:07:19.976Z,1921.00
2023-05-04T04:08:19.915Z,1904.00
2023-05-04T04:09:19.906Z,1917.00
2023-05-04T04:10:19.872Z,1908.00
2023-05-04T04:11:19.891Z,1894.00
2023-05-04T04:12:19.870Z,1889.00
2023-05-04T04:13:20.026Z,1907.00
2023-05-04T04:14:19.851Z,1899.00
2023-05-04T04:15:19.836Z,1895.00
2023-05-04T04:16:19.910Z,1894.00
2023-05-04T04:17:19.831Z,1900.00
2023-05-04T04:18:19.842Z,1901.00
2023-05-04T04:19:19.822Z,1900.00
2023-05-04T04:20:19.822Z,1883.00
2023-05-04T04:21:19.815Z,1896.00
2023-05-04T04:22:19.801Z,1872.00
2023-05-04T04:23:19.840Z,1873.00
2023-05-04T04:24:19.824Z,1858.00
2023-05-04T04:25:19.809Z,1872.00
2023-05-04T04:26:19.834Z,1863.00
2023-05-04T04:27:19.838Z,1866.00
2023-05-04T04:28:19.826Z,1858.00
2023-05-04T04:29:19.822Z,1868.00
2023-05-04T04:30:19.818Z,1884.00
2023-05-04T04:31:19.864Z,1871.00
2023-05-04T04:32:19.788Z,1862.00
2023-05-04T04:33:19.790Z,1853.00
2023-05-04T04:34:19.798Z,1874.00
2023-05-04T04:35:19.801Z,1851.00
2023-05-04T04:36:19.813Z,1845.00
2023-05-04T04:37:19.785Z,1859.00
2023-05-04T04:38:19.801Z,1857.00
2023-05-04T04:39:19.933Z,1851.00
2023-05-04T04:40:19.845Z,1857.00
2023-05-04T04:41:19.813Z,1861.00
2023-05-04T04:42:19.841Z,1832.00
2023-05-04T04:43:19.788Z,1842.00
2023-05-04T04:44:19.809Z,1828.00
2023-05-04T04:45:19.802Z,1828.00
2023-05-04T04:46:19.875Z,1837.00
2023-05-04T04:47:19.803Z,1827.00
2023-05-04T04:48:19.806Z,1825.00
2023-05-04T04:49:19.814Z,1830.00
2023-05-04T04:50:19.806Z,1832.00
2023-05-04T04:51:19.779Z,1820.00
2023-05-04T04:52:19.778Z,1823.00
2023-05-04T04:53:19.807Z,1829.00
2023-05-04T04:54:19.784Z,1819.00
2023-05-04T04:55:19.800Z,1807.00
2023-05-04T04:56:19.782Z,1824.00
2023-05-04T04:57:19.780Z,1809.00
2023-05-04T04:58:19.794Z,1811.00
2023-05-04T04:59:19.814Z,1802.00
2023-05-04T05:00:19.800Z,1800.00
2023-05-04T05:01:19.900Z,1799.00
2023-05-04T05:02:19.816Z,1803.00
2023-05-04T05:03:19.809Z,1797.00
2023-05-04T05:04:19.851Z,1807.00
2023-05-04T05:05:19.830Z,1803.00
2023-05-04T05:06:19.844Z,1812.00
2023-05-04T05:07:19.828Z,1791.00
2023-05-04T05:08:19.840Z,1769.00
2023-05-04T05:09:19.847Z,1780.00
2023-05-04T05:10:20.031Z,1803.00
2023-05-04T05:11:19.860Z,1791.00
2023-05-04T05:12:19.859Z,1782.00
2023-05-04T05:13:19.875Z,1800.00
2023-05-04T05:14:19.820Z,1779.00
2023-05-04T05:15:19.842Z,1786.00
2023-05-04T05:16:19.883Z,1788.00
2023-05-04T05:17:19.811Z,1779.00
2023-05-04T05:18:19.809Z,1777.00
2023-05-04T05:19:19.812Z,1767.00
2023-05-04T05:20:19.830Z,1773.00
2023-05-04T05:21:19.821Z,1766.00
2023-05-04T05:22:19.846Z,1771.00
2023-05-04T05:23:19.872Z,1786.00
2023-05-04T05:24:19.911Z,1764.00
2023-05-04T05:25:19.817Z,1768.00
2023-05-04T05:26:19.821Z,1766.00
2023-05-04T05:27:19.890Z,1758.00
2023-05-04T05:28:19.810Z,1759.00
2023-05-04T05:29:19.817Z,1760.00
2023-05-04T05:30:20.043Z,1768.00
2023-05-04T05:31:19.872Z,1765.00
2023-05-04T05:32:19.821Z,1753.00
2023-05-04T05:33:19.845Z,1751.00
2023-05-04T05:34:19.866Z,1758.00
2023-05-04T05:35:20.037Z,1706.00
2023-05-04T05:36:19.989Z,1680.00
2023-05-04T05:37:19.932Z,1636.00
2023-05-04T05:38:20.018Z,1590.00
2023-05-04T05:39:20.111Z,1586.00
2023-05-04T05:40:20.526Z,1554.00
2023-05-04T05:41:20.225Z,1528.00
2023-05-04T05:42:20.235Z,1543.00
2023-05-04T05:43:20.307Z,1569.00
2023-05-04T05:44:20.300Z,1563.00
2023-05-04T05:45:27.572Z,1546.00
2023-05-04T05:46:20.389Z,1505.00
2023-05-04T05:47:20.324Z,1448.00
2023-05-04T05:48:20.303Z,1360.00
2023-05-04T05:49:20.294Z,1358.00
2023-05-04T05:50:20.317Z,1353.00
2023-05-04T05:51:20.285Z,1369.00
2023-05-04T05:52:20.272Z,1375.00
2023-05-04T05:53:20.285Z,1325.00
2023-05-04T05:54:20.260Z,1388.00
2023-05-04T05:55:20.227Z,1418.00
2023-05-04T05:56:20.258Z,1436.00
2023-05-04T05:57:20.247Z,1433.00
2023-05-04T05:58:20.273Z,1449.00
2023-05-04T05:59:20.596Z,1469.00
2023-05-04T06:00:20.191Z,1460.00
2023-05-04T06:01:20.192Z,1337.00
2023-05-04T06:02:20.353Z,1382.00
2023-05-04T06:03:20.293Z,1393.00
2023-05-04T06:04:20.202Z,1342.00
2023-05-04T06:05:20.194Z,1304.00
2023-05-04T06:06:20.231Z,1309.00
2023-05-04T06:07:20.149Z,1377.00
2023-05-04T06:08:20.165Z,1436.00
2023-05-04T06:09:20.136Z,1499.00
2023-05-04T06:10:20.140Z,1440.00
2023-05-04T06:11:20.171Z,1468.00
2023-05-04T06:12:20.211Z,1444.00
2023-05-04T06:13:20.303Z,1441.00
2023-05-04T06:14:20.328Z,1448.00
2023-05-04T06:15:20.340Z,1417.00
2023-05-04T06:16:20.404Z,1406.00
2023-05-04T06:17:20.410Z,1440.00
2023-05-04T06:18:20.473Z,1434.00
2023-05-04T06:19:20.466Z,1470.00
2023-05-04T06:20:20.516Z,1531.00
2023-05-04T06:21:20.563Z,1531.00
2023-05-04T06:22:20.561Z,1544.00
2023-05-04T06:23:20.607Z,1555.00
2023-05-04T06:24:20.645Z,1431.00
2023-05-04T06:25:20.679Z,1411.00
2023-05-04T06:26:20.705Z,1360.00
2023-05-04T06:27:22.184Z,1406.00
2023-05-04T06:28:20.733Z,1392.00
2023-05-04T06:29:20.769Z,1426.00
2023-05-04T06:30:20.828Z,1475.00
2023-05-04T06:31:20.884Z,1457.00
2023-05-04T06:32:20.867Z,1466.00
2023-05-04T06:33:20.937Z,1435.00
2023-05-04T06:34:20.921Z,1442.00
2023-05-04T06:35:20.966Z,1491.00
2023-05-04T06:36:21.029Z,1508.00
2023-05-04T06:37:21.005Z,1444.00
2023-05-04T06:38:21.054Z,1402.00
2023-05-04T06:39:21.104Z,1429.00
2023-05-04T06:40:21.128Z,1408.00
2023-05-04T06:41:21.647Z,1333.00
2023-05-04T06:42:21.232Z,1353.00
2023-05-04T06:43:21.262Z,1463.00
2023-05-04T06:44:21.298Z,1455.00
2023-05-04T06:45:21.323Z,1457.00
2023-05-04T06:46:21.486Z,1422.00
2023-05-04T06:47:21.389Z,1380.00
2023-05-04T06:48:21.392Z,1426.00
2023-05-04T06:49:21.434Z,1420.00
2023-05-04T06:50:21.480Z,1491.00
2023-05-04T06:51:21.584Z,1505.00
2023-05-04T06:52:21.583Z,1570.00
2023-05-04T06:53:21.558Z,1608.00
2023-05-04T06:54:21.600Z,1631.00
2023-05-04T06:55:21.630Z,1633.00
2023-05-04T06:56:21.672Z,1621.00
2023-05-04T06:57:21.654Z,1586.00
2023-05-04T06:58:21.703Z,1615.00
2023-05-04T06:59:21.719Z,1627.00
2023-05-04T07:00:21.711Z,1641.00
2023-05-04T07:01:21.819Z,1637.00
2023-05-04T07:02:21.754Z,1664.00
2023-05-04T07:03:21.828Z,1655.00
2023-05-04T07:04:21.788Z,1668.00
2023-05-04T07:05:21.794Z,1638.00
2023-05-04T07:06:21.826Z,1626.00
2023-05-04T07:07:21.804Z,1569.00
2023-05-04T07:08:21.819Z,1622.00
2023-05-04T07:09:21.876Z,1661.00
2023-05-04T07:10:21.810Z,1671.00
2023-05-04T07:11:21.809Z,1667.00
2023-05-04T07:12:21.838Z,1684.00
2023-05-04T07:13:21.843Z,1679.00
2023-05-04T07:14:21.862Z,1698.00
2023-05-04T07:15:21.864Z,1691.00
2023-05-04T07:16:22.089Z,1708.00
2023-05-04T07:17:21.987Z,1703.00
2023-05-04T07:18:21.873Z,1721.00
2023-05-04T07:19:21.869Z,1745.00
2023-05-04T07:20:24.231Z,1746.00
2023-05-04T07:21:28.232Z,1755.00
2023-05-04T07:22:22.883Z,1756.00
2023-05-04T07:23:21.882Z,1762.00
2023-05-04T07:24:21.871Z,1766.00
2023-05-04T07:25:21.880Z,1783.00
2023-05-04T07:26:22.135Z,1762.00
2023-05-04T07:27:21.865Z,1789.00
2023-05-04T07:28:21.829Z,1816.00
2023-05-04T07:29:21.846Z,1768.00
2023-05-04T07:30:21.876Z,1744.00
2023-05-04T07:31:21.831Z,1733.00
2023-05-04T07:32:21.958Z,1694.00
2023-05-04T07:33:21.861Z,1686.00
2023-05-04T07:34:25.299Z,1624.00
2023-05-04T07:35:22.865Z,1576.00
2023-05-04T07:36:21.796Z,1588.00
2023-05-04T07:37:22.099Z,1571.00
2023-05-04T07:38:21.756Z,1542.00
2023-05-04T07:39:21.776Z,1562.00
2023-05-04T07:41:06.377Z,500.00
2023-05-04T07:42:06.364Z,500.00
2023-05-04T07:43:06.360Z,500.00
2023-05-04T07:44:06.337Z,500.00
2023-05-04T07:45:06.349Z,500.00
2023-05-04T07:46:06.423Z,489.00
2023-05-04T07:47:06.402Z,425.00
2023-05-04T07:48:06.437Z,525.00
2023-05-04T07:49:06.447Z,510.00
2023-05-04T07:50:06.606Z,518.00
2023-05-04T07:51:06.450Z,534.00
2023-05-04T07:52:06.461Z,528.00
2023-05-04T07:53:07.096Z,534.00
2023-05-04T07:54:06.555Z,532.00
2023-05-04T07:55:06.631Z,521.00
2023-05-04T07:56:06.653Z,529.00
2023-05-04T07:57:06.737Z,522.00
2023-05-04T07:58:06.758Z,526.00
2023-05-04T07:59:06.823Z,507.00
2023-05-04T08:00:07.059Z,617.00
2023-05-04T08:01:06.994Z,655.00
2023-05-04T08:02:07.148Z,636.00
2023-05-04T08:03:07.131Z,621.00
2023-05-04T08:04:07.122Z,524.00
2023-05-04T08:05:07.187Z,529.00
2023-05-04T08:06:07.298Z,560.00
2023-05-04T08:07:07.321Z,553.00
2023-05-04T08:08:07.378Z,531.00
2023-05-04T08:09:07.484Z,516.00
2023-05-04T08:10:07.497Z,513.00
2023-05-04T08:11:19.371Z,505.00
2023-05-04T08:12:08.526Z,506.00
2023-05-04T08:13:07.593Z,506.00
2023-05-04T08:14:07.514Z,499.00
2023-05-04T08:15:07.505Z,508.00
2023-05-04T08:16:07.479Z,515.00
2023-05-04T08:17:07.499Z,505.00
2023-05-04T08:18:07.539Z,514.00
2023-05-04T08:19:07.483Z,510.00
2023-05-04T08:20:07.462Z,517.00
2023-05-04T08:21:07.462Z,502.00
2023-05-04T08:22:07.605Z,509.00
2023-05-04T08:23:07.619Z,512.00
2023-05-04T08:24:07.596Z,515.00
2023-05-04T08:25:08.083Z,515.00
2023-05-04T08:26:07.654Z,512.00
2023-05-04T08:27:09.792Z,503.00
2023-05-04T08:28:07.767Z,510.00
2023-05-04T08:29:07.825Z,520.00
2023-05-04T08:30:07.844Z,515.00
2023-05-04T08:31:07.916Z,526.00
2023-05-04T08:32:08.118Z,531.00
2023-05-04T08:33:08.034Z,540.00
2023-05-04T08:34:08.001Z,571.00
2023-05-04T08:35:08.110Z,576.00
2023-05-04T08:36:08.079Z,568.00
2023-05-04T08:37:08.636Z,571.00
2023-05-04T08:38:08.171Z,581.00
2023-05-04T08:39:08.279Z,567.00
2023-05-04T08:40:08.282Z,515.00
2023-05-04T08:41:08.330Z,494.00
2023-05-04T08:42:08.388Z,476.00
2023-05-04T08:43:08.389Z,484.00
2023-05-04T08:44:08.408Z,505.00
2023-05-04T08:45:08.363Z,500.00
2023-05-04T08:46:08.441Z,512.00
2023-05-04T08:47:08.422Z,500.00
2023-05-04T08:48:08.606Z,508.00
2023-05-04T08:49:08.388Z,512.00
2023-05-04T08:50:08.443Z,507.00
2023-05-04T08:51:08.432Z,510.00
2023-05-04T08:52:08.627Z,523.00
2023-05-04T08:53:08.441Z,463.00
2023-05-04T08:54:08.414Z,507.00
2023-05-04T08:55:08.436Z,580.00
2023-05-04T08:56:08.433Z,638.00
2023-05-04T08:57:08.632Z,643.00
2023-05-04T08:58:08.523Z,641.00
2023-05-04T08:59:08.615Z,641.00
2023-05-04T09:00:08.673Z,641.00
2023-05-04T09:01:08.850Z,666.00
2023-05-04T09:02:09.189Z,650.00
2023-05-04T09:03:08.900Z,654.00
2023-05-04T09:04:08.994Z,677.00
2023-05-04T09:05:08.900Z,712.00
2023-05-04T09:06:08.960Z,751.00
2023-05-04T09:07:08.964Z,739.00
2023-05-04T09:08:09.009Z,771.00
2023-05-04T09:09:09.045Z,780.00
2023-05-04T09:10:09.103Z,794.00
2023-05-04T09:11:09.126Z,824.00
2023-05-04T09:12:09.625Z,815.00
2023-05-04T09:13:09.223Z,881.00
2023-05-04T09:14:09.223Z,884.00
2023-05-04T09:15:09.262Z,896.00
2023-05-04T09:16:09.243Z,920.00
2023-05-04T09:17:09.345Z,940.00
2023-05-04T09:18:09.310Z,960.00
2023-05-04T09:19:09.298Z,983.00
2023-05-04T09:20:09.318Z,969.00
2023-05-04T09:21:09.298Z,983.00
2023-05-04T09:22:09.319Z,997.00
2023-05-04T09:23:09.355Z,1010.00
2023-05-04T09:24:09.332Z,971.00
2023-05-04T09:25:09.325Z,1003.00
2023-05-04T09:26:09.371Z,992.00
2023-05-04T09:27:09.372Z,1006.00
2023-05-04T09:28:09.637Z,1011.00
2023-05-04T09:29:09.407Z,1046.00
2023-05-04T09:30:09.378Z,1082.00
2023-05-04T09:31:09.413Z,1101.00
2023-05-04T09:32:09.392Z,1164.00
2023-05-04T09:33:09.432Z,1211.00
2023-05-04T09:34:09.403Z,1226.00
2023-05-04T09:35:10.743Z,1255.00
2023-05-04T09:36:09.385Z,1250.00
2023-05-04T09:37:09.375Z,1269.00
2023-05-04T09:38:09.630Z,1303.00
2023-05-04T09:39:11.161Z,1369.00
2023-05-04T09:40:09.372Z,1371.00
2023-05-04T09:41:09.363Z,1386.00
2023-05-04T09:42:09.353Z,1428.00
2023-05-04T09:43:09.421Z,1481.00
2023-05-04T09:44:09.321Z,1589.00
2023-05-04T09:45:09.412Z,1539.00
2023-05-04T09:46:09.317Z,1445.00
2023-05-04T09:47:09.315Z,1546.00
2023-05-04T09:48:09.328Z,1551.00
2023-05-04T09:49:09.282Z,1578.00
2023-05-04T09:50:09.299Z,1595.00
2023-05-04T09:51:09.286Z,1645.00
2023-05-04T09:52:09.347Z,1671.00
2023-05-04T09:53:09.285Z,1675.00
2023-05-04T09:54:09.296Z,1692.00
2023-05-04T09:55:09.279Z,1694.00
2023-05-04T09:56:09.251Z,1487.00
2023-05-04T09:57:09.246Z,1588.00
2023-05-04T09:58:09.265Z,1612.00
2023-05-04T09:59:09.270Z,1582.00
2023-05-04T10:00:09.235Z,1591.00
2023-05-04T10:01:11.214Z,1607.00
2023-05-04T10:02:18.643Z,1606.00
2023-05-04T10:03:10.318Z,1588.00
2023-05-04T10:04:09.213Z,1548.00
2023-05-04T10:05:09.249Z,1485.00
2023-05-04T10:06:09.418Z,1472.00
2023-05-04T10:07:09.200Z,1431.00
2023-05-04T10:08:09.887Z,1374.00
2023-05-04T10:09:09.360Z,1355.00
2023-05-04T10:10:09.176Z,1289.00
2023-05-04T10:11:09.205Z,1277.00
2023-05-04T10:12:09.208Z,1289.00
2023-05-04T10:13:09.690Z,1272.00
2023-05-04T10:14:09.149Z,1266.00
2023-05-04T10:15:09.145Z,1189.00
2023-05-04T10:16:09.139Z,1142.00
2023-05-04T10:17:09.159Z,918.00
2023-05-04T10:18:09.162Z,943.00
2023-05-04T10:19:09.112Z,968.00
2023-05-04T10:20:09.134Z,945.00
2023-05-04T10:21:09.125Z,922.00
2023-05-04T10:22:09.107Z,860.00
2023-05-04T10:23:09.142Z,853.00
2023-05-04T10:24:09.112Z,859.00
2023-05-04T10:25:09.104Z,831.00
2023-05-04T10:26:09.116Z,828.00
2023-05-04T10:27:09.119Z,798.00
2023-05-04T10:28:09.154Z,826.00
2023-05-04T10:29:09.068Z,813.00
2023-05-04T10:30:09.772Z,789.00
2023-05-04T10:31:09.251Z,720.00
2023-05-04T10:32:09.093Z,654.00
2023-05-04T10:33:09.098Z,648.00
2023-05-04T10:34:09.098Z,647.00
2023-05-04T10:35:09.114Z,648.00
2023-05-04T10:36:09.135Z,630.00
2023-05-04T10:37:09.129Z,599.00
2023-05-04T10:38:09.701Z,547.00
2023-05-04T10:39:09.173Z,534.00
2023-05-04T10:40:09.210Z,532.00
2023-05-04T10:41:09.249Z,568.00
2023-05-04T10:42:09.250Z,619.00
2023-05-04T10:43:09.681Z,592.00
2023-05-04T10:44:09.423Z,627.00
2023-05-04T10:45:09.344Z,640.00
2023-05-04T10:46:09.358Z,651.00
2023-05-04T10:47:09.450Z,658.00
2023-05-04T10:48:09.907Z,663.00
2023-05-04T10:49:09.409Z,725.00
2023-05-04T10:50:09.378Z,768.00
2023-05-04T10:51:09.393Z,809.00
2023-05-04T10:52:09.368Z,874.00
2023-05-04T10:53:09.446Z,937.00
2023-05-04T10:54:09.339Z,992.00
2023-05-04T10:55:09.416Z,1020.00
2023-05-04T10:56:09.368Z,981.00
2023-05-04T10:57:09.374Z,1032.00
2023-05-04T10:58:09.702Z,689.00
2023-05-04T10:59:09.431Z,670.00
2023-05-04T11:00:09.458Z,842.00
2023-05-04T11:01:09.448Z,844.00
2023-05-04T11:02:09.498Z,812.00
2023-05-04T11:03:09.607Z,828.00
2023-05-04T11:04:09.425Z,828.00
2023-05-04T11:05:09.413Z,802.00
2023-05-04T11:06:09.428Z,794.00
2023-05-04T11:07:09.413Z,756.00
2023-05-04T11:08:09.445Z,684.00
2023-05-04T11:09:09.455Z,492.00
2023-05-04T11:10:09.482Z,595.00
2023-05-04T11:11:09.469Z,596.00
2023-05-04T11:12:09.420Z,515.00
2023-05-04T11:13:09.468Z,599.00
2023-05-04T11:14:09.434Z,686.00
2023-05-04T11:15:09.447Z,755.00
2023-05-04T11:16:09.423Z,754.00
2023-05-04T11:17:26.193Z,744.00
2023-05-04T11:18:10.459Z,697.00
2023-05-04T11:19:09.461Z,662.00
2023-05-04T11:20:09.385Z,641.00
2023-05-04T11:21:09.394Z,638.00
2023-05-04T11:22:09.369Z,634.00
2023-05-04T11:23:09.444Z,650.00
2023-05-04T11:24:09.375Z,647.00
2023-05-04T11:25:09.383Z,658.00
2023-05-04T11:26:09.474Z,750.00
2023-05-04T11:27:09.378Z,888.00
2023-05-04T11:28:09.338Z,999.00
2023-05-04T11:29:09.682Z,1003.00
2023-05-04T11:30:09.342Z,1022.00
2023-05-04T11:31:09.380Z,1064.00
2023-05-04T11:32:09.292Z,1166.00
2023-05-04T11:33:09.336Z,1295.00
2023-05-04T11:34:09.684Z,1327.00
2023-05-04T11:35:09.380Z,1374.00
2023-05-04T11:36:09.282Z,1407.00
2023-05-04T11:37:09.289Z,1443.00
2023-05-04T11:38:09.276Z,1466.00
2023-05-04T11:39:09.252Z,1489.00
2023-05-04T11:40:09.280Z,1523.00
2023-05-04T11:41:09.215Z,1535.00
2023-05-04T11:42:09.235Z,1546.00
2023-05-04T11:43:09.234Z,1582.00
2023-05-04T11:44:09.238Z,1611.00
2023-05-04T11:45:09.220Z,1610.00
2023-05-04T11:46:09.266Z,1633.00
2023-05-04T11:47:09.212Z,1664.00
2023-05-04T11:48:09.274Z,1650.00
2023-05-04T11:49:09.205Z,1667.00
2023-05-04T11:50:09.181Z,1673.00
2023-05-04T11:51:09.184Z,1685.00
2023-05-04T11:52:09.176Z,1680.00
2023-05-04T11:53:09.409Z,1695.00
2023-05-04T11:54:09.164Z,1699.00
2023-05-04T11:55:09.365Z,1721.00
2023-05-04T11:56:09.232Z,1712.00
2023-05-04T11:57:09.123Z,1703.00
2023-05-04T11:58:09.134Z,1725.00
2023-05-04T11:59:09.144Z,1707.00
2023-05-04T12:00:09.127Z,1712.00
2023-05-04T12:01:09.117Z,1718.00
2023-05-04T12:02:09.096Z,1730.00
2023-05-04T12:03:09.170Z,1741.00
2023-05-04T12:04:09.264Z,1741.00
2023-05-04T12:05:09.201Z,1745.00
2023-05-04T12:06:09.076Z,1755.00
2023-05-04T12:07:09.128Z,1737.00
2023-05-04T12:08:09.075Z,1748.00
2023-05-04T12:09:09.082Z,1752.00
2023-05-04T12:10:09.048Z,1777.00
2023-05-04T12:11:09.063Z,1764.00
2023-05-04T12:12:09.029Z,1769.00